sensor_id;sensor_type;location;lat;lon;timestamp;P1;durP1;ratioP1;P2;durP2;ratioP2
20209;SDS011;10264;53.178;5.840;2022-08-19T00:00:43;10.57;;;8.43;;
20209;SDS011;10264;53.178;5.840;2022-08-19T00:03:10;12.13;;;9.20;;
20209;SDS011;10264;53.178;5.840;2022-08-19T00:05:36;10.57;;;9.47;;
20209;SDS011;10264;53.178;5.840;2022-08-19T00:08:03;15.20;;;8.80;;
20209;SDS011;10264;53.178;5.840;2022-08-19T00:10:29;9.47;;;8.47;;
20209;SDS011;10264;53.178;5.840;2022-08-19T00:12:56;14.17;;;9.53;;
20209;SDS011;10264;53.178;5.840;2022-08-19T00:15:22;12.50;;;8.97;;
20209;SDS011;10264;53.178;5.840;2022-08-19T00:17:49;11.30;;;9.73;;
20209;SDS011;10264;53.178;5.840;2022-08-19T00:20:17;14.47;;;9.83;;
20209;SDS011;10264;53.178;5.840;2022-08-19T00:22:45;10.50;;;9.17;;
20209;SDS011;10264;53.178;5.840;2022-08-19T00:25:13;10.83;;;9.73;;
20209;SDS011;10264;53.178;5.840;2022-08-19T00:27:40;12.33;;;10.30;;
20209;SDS011;10264;53.178;5.840;2022-08-19T00:30:07;11.67;;;9.90;;
20209;SDS011;10264;53.178;5.840;2022-08-19T00:32:34;10.20;;;9.07;;
20209;SDS011;10264;53.178;5.840;2022-08-19T00:35:01;10.50;;;9.23;;
20209;SDS011;10264;53.178;5.840;2022-08-19T00:37:27;12.87;;;8.87;;
20209;SDS011;10264;53.178;5.840;2022-08-19T00:39:54;12.33;;;9.23;;
20209;SDS011;10264;53.178;5.840;2022-08-19T00:42:21;12.80;;;9.67;;
20209;SDS011;10264;53.178;5.840;2022-08-19T00:44:48;11.70;;;9.37;;
20209;SDS011;10264;53.178;5.840;2022-08-19T00:47:15;15.23;;;9.13;;
20209;SDS011;10264;53.178;5.840;2022-08-19T00:49:43;11.40;;;9.00;;
20209;SDS011;10264;53.178;5.840;2022-08-19T00:52:14;10.27;;;9.27;;
20209;SDS011;10264;53.178;5.840;2022-08-19T00:54:44;10.07;;;8.47;;
20209;SDS011;10264;53.178;5.840;2022-08-19T00:57:18;11.33;;;9.43;;
20209;SDS011;10264;53.178;5.840;2022-08-19T00:59:53;12.77;;;9.87;;
20209;SDS011;10264;53.178;5.840;2022-08-19T01:02:28;10.00;;;8.90;;
20209;SDS011;10264;53.178;5.840;2022-08-19T01:04:56;16.97;;;10.30;;
20209;SDS011;10264;53.178;5.840;2022-08-19T01:07:22;13.13;;;9.87;;
20209;SDS011;10264;53.178;5.840;2022-08-19T01:09:49;13.37;;;9.53;;
20209;SDS011;10264;53.178;5.840;2022-08-19T01:12:15;12.63;;;9.87;;
20209;SDS011;10264;53.178;5.840;2022-08-19T01:14:43;14.17;;;9.47;;
20209;SDS011;10264;53.178;5.840;2022-08-19T01:17:11;10.60;;;8.60;;
20209;SDS011;10264;53.178;5.840;2022-08-19T01:19:42;12.90;;;9.90;;
20209;SDS011;10264;53.178;5.840;2022-08-19T01:22:12;11.73;;;8.97;;
20209;SDS011;10264;53.178;5.840;2022-08-19T01:24:55;9.37;;;8.33;;
20209;SDS011;10264;53.178;5.840;2022-08-19T01:27:24;12.33;;;8.60;;
20209;SDS011;10264;53.178;5.840;2022-08-19T01:29:51;9.43;;;8.53;;
20209;SDS011;10264;53.178;5.840;2022-08-19T01:32:17;11.30;;;9.57;;
20209;SDS011;10264;53.178;5.840;2022-08-19T01:34:59;19.17;;;9.40;;
20209;SDS011;10264;53.178;5.840;2022-08-19T01:37:26;12.30;;;9.80;;
20209;SDS011;10264;53.178;5.840;2022-08-19T01:39:53;12.43;;;10.07;;
20209;SDS011;10264;53.178;5.840;2022-08-19T01:42:20;10.57;;;9.47;;
20209;SDS011;10264;53.178;5.840;2022-08-19T01:44:55;12.40;;;9.33;;
20209;SDS011;10264;53.178;5.840;2022-08-19T01:47:21;11.33;;;9.23;;
20209;SDS011;10264;53.178;5.840;2022-08-19T01:49:48;10.67;;;9.57;;
20209;SDS011;10264;53.178;5.840;2022-08-19T01:52:14;11.47;;;9.93;;
20209;SDS011;10264;53.178;5.840;2022-08-19T01:54:41;11.17;;;9.70;;
20209;SDS011;10264;53.178;5.840;2022-08-19T01:57:08;16.37;;;10.00;;
20209;SDS011;10264;53.178;5.840;2022-08-19T01:59:39;14.60;;;9.53;;
20209;SDS011;10264;53.178;5.840;2022-08-19T02:02:07;10.83;;;9.83;;
20209;SDS011;10264;53.178;5.840;2022-08-19T02:04:34;11.60;;;9.40;;
20209;SDS011;10264;53.178;5.840;2022-08-19T02:07:01;11.23;;;10.03;;
20209;SDS011;10264;53.178;5.840;2022-08-19T02:09:28;12.43;;;9.80;;
20209;SDS011;10264;53.178;5.840;2022-08-19T02:11:54;16.27;;;9.67;;
20209;SDS011;10264;53.178;5.840;2022-08-19T02:14:21;12.40;;;10.07;;
20209;SDS011;10264;53.178;5.840;2022-08-19T02:16:47;11.37;;;10.17;;
20209;SDS011;10264;53.178;5.840;2022-08-19T02:19:14;11.57;;;10.30;;
20209;SDS011;10264;53.178;5.840;2022-08-19T02:21:40;13.67;;;10.40;;
20209;SDS011;10264;53.178;5.840;2022-08-19T02:24:07;16.60;;;11.57;;
20209;SDS011;10264;53.178;5.840;2022-08-19T02:26:33;14.97;;;11.77;;
20209;SDS011;10264;53.178;5.840;2022-08-19T02:29:00;16.93;;;11.57;;
20209;SDS011;10264;53.178;5.840;2022-08-19T02:31:26;16.47;;;12.67;;
20209;SDS011;10264;53.178;5.840;2022-08-19T02:33:54;15.70;;;12.23;;
20209;SDS011;10264;53.178;5.840;2022-08-19T02:36:22;16.43;;;12.43;;
20209;SDS011;10264;53.178;5.840;2022-08-19T02:38:50;18.93;;;13.20;;
20209;SDS011;10264;53.178;5.840;2022-08-19T02:41:24;17.70;;;13.70;;
20209;SDS011;10264;53.178;5.840;2022-08-19T02:43:54;18.33;;;13.93;;
20209;SDS011;10264;53.178;5.840;2022-08-19T02:46:41;18.37;;;13.13;;
20209;SDS011;10264;53.178;5.840;2022-08-19T02:49:08;16.90;;;13.10;;
20209;SDS011;10264;53.178;5.840;2022-08-19T02:51:37;21.13;;;14.07;;
20209;SDS011;10264;53.178;5.840;2022-08-19T02:54:10;18.07;;;13.17;;
20209;SDS011;10264;53.178;5.840;2022-08-19T02:56:39;16.37;;;13.13;;
20209;SDS011;10264;53.178;5.840;2022-08-19T02:59:06;16.30;;;12.53;;
20209;SDS011;10264;53.178;5.840;2022-08-19T03:01:35;18.23;;;12.87;;
20209;SDS011;10264;53.178;5.840;2022-08-19T03:04:03;19.60;;;13.37;;
20209;SDS011;10264;53.178;5.840;2022-08-19T03:06:30;16.73;;;13.60;;
20209;SDS011;10264;53.178;5.840;2022-08-19T03:08:57;17.67;;;13.87;;
20209;SDS011;10264;53.178;5.840;2022-08-19T03:11:25;19.03;;;14.50;;
20209;SDS011;10264;53.178;5.840;2022-08-19T03:13:56;15.13;;;12.97;;
20209;SDS011;10264;53.178;5.840;2022-08-19T03:16:25;18.10;;;13.63;;
20209;SDS011;10264;53.178;5.840;2022-08-19T03:18:53;17.57;;;12.57;;
20209;SDS011;10264;53.178;5.840;2022-08-19T03:21:23;17.97;;;12.70;;
20209;SDS011;10264;53.178;5.840;2022-08-19T03:23:54;16.13;;;13.33;;
20209;SDS011;10264;53.178;5.840;2022-08-19T03:26:21;18.33;;;13.43;;
20209;SDS011;10264;53.178;5.840;2022-08-19T03:28:47;17.23;;;13.33;;
20209;SDS011;10264;53.178;5.840;2022-08-19T03:31:23;17.20;;;13.37;;
20209;SDS011;10264;53.178;5.840;2022-08-19T03:34:17;16.53;;;12.20;;
20209;SDS011;10264;53.178;5.840;2022-08-19T03:36:46;17.83;;;13.13;;
20209;SDS011;10264;53.178;5.840;2022-08-19T03:39:13;17.57;;;13.13;;
20209;SDS011;10264;53.178;5.840;2022-08-19T03:41:41;17.17;;;13.33;;
20209;SDS011;10264;53.178;5.840;2022-08-19T03:44:17;15.77;;;12.40;;
20209;SDS011;10264;53.178;5.840;2022-08-19T03:46:46;17.20;;;12.83;;
20209;SDS011;10264;53.178;5.840;2022-08-19T03:49:16;18.07;;;13.57;;
20209;SDS011;10264;53.178;5.840;2022-08-19T03:51:45;16.47;;;13.33;;
20209;SDS011;10264;53.178;5.840;2022-08-19T03:54:14;16.90;;;13.33;;
20209;SDS011;10264;53.178;5.840;2022-08-19T03:56:43;18.97;;;13.57;;
20209;SDS011;10264;53.178;5.840;2022-08-19T03:59:11;16.37;;;12.60;;
20209;SDS011;10264;53.178;5.840;2022-08-19T04:01:41;14.10;;;12.30;;
20209;SDS011;10264;53.178;5.840;2022-08-19T04:04:07;17.03;;;11.77;;
20209;SDS011;10264;53.178;5.840;2022-08-19T04:06:36;18.17;;;13.23;;
20209;SDS011;10264;53.178;5.840;2022-08-19T04:09:06;13.67;;;11.53;;
20209;SDS011;10264;53.178;5.840;2022-08-19T04:11:36;14.83;;;12.50;;
20209;SDS011;10264;53.178;5.840;2022-08-19T04:14:10;18.80;;;12.77;;
20209;SDS011;10264;53.178;5.840;2022-08-19T04:16:38;14.63;;;11.67;;
20209;SDS011;10264;53.178;5.840;2022-08-19T04:19:05;15.80;;;11.97;;
20209;SDS011;10264;53.178;5.840;2022-08-19T04:21:33;15.93;;;11.43;;
20209;SDS011;10264;53.178;5.840;2022-08-19T04:24:01;13.33;;;11.67;;
20209;SDS011;10264;53.178;5.840;2022-08-19T04:26:30;14.50;;;11.47;;
20209;SDS011;10264;53.178;5.840;2022-08-19T04:28:59;13.63;;;11.43;;
20209;SDS011;10264;53.178;5.840;2022-08-19T04:31:28;16.27;;;12.40;;
20209;SDS011;10264;53.178;5.840;2022-08-19T04:33:57;15.43;;;12.43;;
20209;SDS011;10264;53.178;5.840;2022-08-19T04:36:26;19.77;;;13.30;;
20209;SDS011;10264;53.178;5.840;2022-08-19T04:38:55;16.60;;;12.90;;
20209;SDS011;10264;53.178;5.840;2022-08-19T04:41:24;18.47;;;12.80;;
20209;SDS011;10264;53.178;5.840;2022-08-19T04:43:51;18.83;;;13.93;;
20209;SDS011;10264;53.178;5.840;2022-08-19T04:46:17;22.70;;;15.03;;
20209;SDS011;10264;53.178;5.840;2022-08-19T04:49:04;21.17;;;14.00;;
20209;SDS011;10264;53.178;5.840;2022-08-19T04:51:39;16.27;;;12.97;;
20209;SDS011;10264;53.178;5.840;2022-08-19T04:54:07;18.70;;;13.80;;
20209;SDS011;10264;53.178;5.840;2022-08-19T04:56:34;22.00;;;14.17;;
20209;SDS011;10264;53.178;5.840;2022-08-19T04:59:01;18.63;;;14.23;;
20209;SDS011;10264;53.178;5.840;2022-08-19T05:01:27;18.83;;;14.47;;
20209;SDS011;10264;53.178;5.840;2022-08-19T05:03:56;18.13;;;14.43;;
20209;SDS011;10264;53.178;5.840;2022-08-19T05:06:23;18.93;;;14.50;;
20209;SDS011;10264;53.178;5.840;2022-08-19T05:08:50;18.47;;;14.87;;
20209;SDS011;10264;53.178;5.840;2022-08-19T05:11:18;21.97;;;15.33;;
20209;SDS011;10264;53.178;5.840;2022-08-19T05:13:51;17.73;;;13.97;;
20209;SDS011;10264;53.178;5.840;2022-08-19T05:16:19;18.10;;;14.10;;
20209;SDS011;10264;53.178;5.840;2022-08-19T05:18:47;16.20;;;13.47;;
20209;SDS011;10264;53.178;5.840;2022-08-19T05:21:15;19.43;;;15.23;;
20209;SDS011;10264;53.178;5.840;2022-08-19T05:23:44;17.30;;;13.63;;
20209;SDS011;10264;53.178;5.840;2022-08-19T05:26:10;17.33;;;14.43;;
20209;SDS011;10264;53.178;5.840;2022-08-19T05:28:37;16.83;;;14.53;;
20209;SDS011;10264;53.178;5.840;2022-08-19T05:31:03;18.40;;;14.53;;
20209;SDS011;10264;53.178;5.840;2022-08-19T05:33:30;21.37;;;15.40;;
20209;SDS011;10264;53.178;5.840;2022-08-19T05:35:57;20.13;;;15.20;;
20209;SDS011;10264;53.178;5.840;2022-08-19T05:38:23;18.50;;;14.83;;
20209;SDS011;10264;53.178;5.840;2022-08-19T05:40:50;18.67;;;14.67;;
20209;SDS011;10264;53.178;5.840;2022-08-19T05:43:16;19.80;;;15.00;;
20209;SDS011;10264;53.178;5.840;2022-08-19T05:45:43;15.23;;;13.60;;
20209;SDS011;10264;53.178;5.840;2022-08-19T05:48:10;14.50;;;12.93;;
20209;SDS011;10264;53.178;5.840;2022-08-19T05:50:40;13.60;;;11.97;;
20209;SDS011;10264;53.178;5.840;2022-08-19T05:53:07;13.13;;;11.70;;
20209;SDS011;10264;53.178;5.840;2022-08-19T05:55:35;12.90;;;10.27;;
20209;SDS011;10264;53.178;5.840;2022-08-19T05:58:02;11.90;;;10.80;;
20209;SDS011;10264;53.178;5.840;2022-08-19T06:00:28;12.77;;;11.13;;
20209;SDS011;10264;53.178;5.840;2022-08-19T06:02:55;12.10;;;11.03;;
20209;SDS011;10264;53.178;5.840;2022-08-19T06:05:22;12.10;;;10.83;;
20209;SDS011;10264;53.178;5.840;2022-08-19T06:07:48;11.83;;;10.73;;
20209;SDS011;10264;53.178;5.840;2022-08-19T06:10:14;12.47;;;11.27;;
20209;SDS011;10264;53.178;5.840;2022-08-19T06:12:41;12.37;;;11.27;;
20209;SDS011;10264;53.178;5.840;2022-08-19T06:15:09;12.33;;;11.23;;
20209;SDS011;10264;53.178;5.840;2022-08-19T06:17:38;11.73;;;10.53;;
20209;SDS011;10264;53.178;5.840;2022-08-19T06:20:06;11.73;;;10.57;;
20209;SDS011;10264;53.178;5.840;2022-08-19T06:22:40;12.07;;;10.97;;
20209;SDS011;10264;53.178;5.840;2022-08-19T06:25:12;11.05;;;10.05;;
20209;SDS011;10264;53.178;5.840;2022-08-19T06:27:39;12.38;;;11.18;;
20209;SDS011;10264;53.178;5.840;2022-08-19T06:30:26;11.52;;;10.48;;
20209;SDS011;10264;53.178;5.840;2022-08-19T06:32:52;11.95;;;10.95;;
20209;SDS011;10264;53.178;5.840;2022-08-19T06:35:19;11.82;;;10.30;;
20209;SDS011;10264;53.178;5.840;2022-08-19T06:37:46;11.80;;;10.60;;
20209;SDS011;10264;53.178;5.840;2022-08-19T06:40:12;12.27;;;11.05;;
20209;SDS011;10264;53.178;5.840;2022-08-19T06:42:39;12.20;;;11.13;;
20209;SDS011;10264;53.178;5.840;2022-08-19T06:45:20;11.85;;;10.85;;
20209;SDS011;10264;53.178;5.840;2022-08-19T06:47:59;11.50;;;10.40;;
20209;SDS011;10264;53.178;5.840;2022-08-19T06:50:26;11.57;;;10.48;;
20209;SDS011;10264;53.178;5.840;2022-08-19T06:52:53;12.38;;;11.27;;
20209;SDS011;10264;53.178;5.840;2022-08-19T06:55:20;11.43;;;10.43;;
20209;SDS011;10264;53.178;5.840;2022-08-19T06:57:46;11.73;;;10.73;;
20209;SDS011;10264;53.178;5.840;2022-08-19T07:00:13;11.55;;;10.55;;
20209;SDS011;10264;53.178;5.840;2022-08-19T07:02:40;10.95;;;10.05;;
20209;SDS011;10264;53.178;5.840;2022-08-19T07:05:18;11.52;;;10.52;;
20209;SDS011;10264;53.178;5.840;2022-08-19T07:07:45;11.40;;;10.45;;
20209;SDS011;10264;53.178;5.840;2022-08-19T07:10:12;11.07;;;10.18;;
20209;SDS011;10264;53.178;5.840;2022-08-19T07:12:39;12.70;;;11.45;;
20209;SDS011;10264;53.178;5.840;2022-08-19T07:15:06;11.75;;;10.75;;
20209;SDS011;10264;53.178;5.840;2022-08-19T07:17:33;12.32;;;11.30;;
20209;SDS011;10264;53.178;5.840;2022-08-19T07:20:01;12.80;;;11.73;;
20209;SDS011;10264;53.178;5.840;2022-08-19T07:22:39;13.23;;;12.02;;
20209;SDS011;10264;53.178;5.840;2022-08-19T07:25:06;13.50;;;12.45;;
20209;SDS011;10264;53.178;5.840;2022-08-19T07:27:34;13.65;;;12.35;;
20209;SDS011;10264;53.178;5.840;2022-08-19T07:30:04;13.25;;;12.05;;
20209;SDS011;10264;53.178;5.840;2022-08-19T07:32:36;15.02;;;13.52;;
20209;SDS011;10264;53.178;5.840;2022-08-19T07:35:03;14.73;;;13.43;;
20209;SDS011;10264;53.178;5.840;2022-08-19T07:37:29;15.50;;;14.13;;
20209;SDS011;10264;53.178;5.840;2022-08-19T07:39:59;16.27;;;14.95;;
20209;SDS011;10264;53.178;5.840;2022-08-19T07:42:27;15.35;;;14.15;;
20209;SDS011;10264;53.178;5.840;2022-08-19T07:44:53;16.83;;;15.40;;
20209;SDS011;10264;53.178;5.840;2022-08-19T07:47:20;16.88;;;15.27;;
20209;SDS011;10264;53.178;5.840;2022-08-19T07:50:08;16.70;;;15.25;;
20209;SDS011;10264;53.178;5.840;2022-08-19T07:52:36;18.30;;;16.48;;
20209;SDS011;10264;53.178;5.840;2022-08-19T07:55:03;17.77;;;16.13;;
20209;SDS011;10264;53.178;5.840;2022-08-19T07:57:51;17.38;;;15.88;;
20209;SDS011;10264;53.178;5.840;2022-08-19T08:00:18;17.45;;;15.85;;
20209;SDS011;10264;53.178;5.840;2022-08-19T08:02:49;18.52;;;16.92;;
20209;SDS011;10264;53.178;5.840;2022-08-19T08:05:18;19.63;;;17.90;;
20209;SDS011;10264;53.178;5.840;2022-08-19T08:07:44;20.77;;;18.88;;
20209;SDS011;10264;53.178;5.840;2022-08-19T08:10:11;19.98;;;18.08;;
20209;SDS011;10264;53.178;5.840;2022-08-19T08:12:46;21.13;;;19.15;;
20209;SDS011;10264;53.178;5.840;2022-08-19T08:15:33;20.75;;;18.85;;
20209;SDS011;10264;53.178;5.840;2022-08-19T08:18:07;19.90;;;18.08;;
20209;SDS011;10264;53.178;5.840;2022-08-19T08:20:34;19.77;;;17.60;;
20209;SDS011;10264;53.178;5.840;2022-08-19T08:23:01;20.60;;;18.55;;
20209;SDS011;10264;53.178;5.840;2022-08-19T08:25:27;21.48;;;19.45;;
20209;SDS011;10264;53.178;5.840;2022-08-19T08:27:57;22.33;;;20.42;;
20209;SDS011;10264;53.178;5.840;2022-08-19T08:30:25;22.88;;;20.98;;
20209;SDS011;10264;53.178;5.840;2022-08-19T08:32:57;24.67;;;22.48;;
20209;SDS011;10264;53.178;5.840;2022-08-19T08:35:24;24.27;;;21.90;;
20209;SDS011;10264;53.178;5.840;2022-08-19T08:37:52;25.42;;;23.00;;
20209;SDS011;10264;53.178;5.840;2022-08-19T08:43:07;24.30;;;21.95;;
20209;SDS011;10264;53.178;5.840;2022-08-19T08:46:11;22.75;;;20.63;;
20209;SDS011;10264;53.178;5.840;2022-08-19T08:51:42;25.77;;;23.20;;
20209;SDS011;10264;53.178;5.840;2022-08-19T08:54:14;25.77;;;23.17;;
20209;SDS011;10264;53.178;5.840;2022-08-19T08:56:45;23.02;;;20.73;;
20209;SDS011;10264;53.178;5.840;2022-08-19T09:02:03;22.77;;;20.52;;
20209;SDS011;10264;53.178;5.840;2022-08-19T09:04:30;22.08;;;19.75;;
20209;SDS011;10264;53.178;5.840;2022-08-19T09:09:49;19.33;;;17.42;;
20209;SDS011;10264;53.178;5.840;2022-08-19T09:12:39;19.25;;;17.23;;
20209;SDS011;10264;53.178;5.840;2022-08-19T09:15:15;21.17;;;19.00;;
20209;SDS011;10264;53.178;5.840;2022-08-19T09:18:02;18.67;;;16.70;;
20209;SDS011;10264;53.178;5.840;2022-08-19T09:20:32;17.92;;;16.13;;
20209;SDS011;10264;53.178;5.840;2022-08-19T09:22:58;17.25;;;15.27;;
20209;SDS011;10264;53.178;5.840;2022-08-19T09:25:25;15.30;;;13.80;;
20209;SDS011;10264;53.178;5.840;2022-08-19T09:27:55;15.15;;;13.73;;
20209;SDS011;10264;53.178;5.840;2022-08-19T09:30:29;16.15;;;14.55;;
20209;SDS011;10264;53.178;5.840;2022-08-19T09:32:57;17.23;;;14.40;;
20209;SDS011;10264;53.178;5.840;2022-08-19T09:35:25;15.45;;;13.95;;
20209;SDS011;10264;53.178;5.840;2022-08-19T09:37:54;16.63;;;14.77;;
20209;SDS011;10264;53.178;5.840;2022-08-19T09:40:25;17.40;;;14.27;;
20209;SDS011;10264;53.178;5.840;2022-08-19T09:42:56;17.60;;;13.48;;
20209;SDS011;10264;53.178;5.840;2022-08-19T09:45:23;13.57;;;11.93;;
20209;SDS011;10264;53.178;5.840;2022-08-19T09:47:50;17.17;;;13.55;;
20209;SDS011;10264;53.178;5.840;2022-08-19T09:50:19;15.55;;;14.05;;
20209;SDS011;10264;53.178;5.840;2022-08-19T09:52:47;15.55;;;14.02;;
20209;SDS011;10264;53.178;5.840;2022-08-19T09:55:23;16.48;;;13.90;;
20209;SDS011;10264;53.178;5.840;2022-08-19T09:57:58;15.27;;;12.98;;
20209;SDS011;10264;53.178;5.840;2022-08-19T10:00:25;16.73;;;14.32;;
20209;SDS011;10264;53.178;5.840;2022-08-19T10:02:52;15.57;;;13.07;;
20209;SDS011;10264;53.178;5.840;2022-08-19T10:05:19;18.70;;;12.98;;
20209;SDS011;10264;53.178;5.840;2022-08-19T10:07:52;15.27;;;12.32;;
20209;SDS011;10264;53.178;5.840;2022-08-19T10:10:18;21.35;;;14.35;;
20209;SDS011;10264;53.178;5.840;2022-08-19T10:12:45;17.65;;;14.73;;
20209;SDS011;10264;53.178;5.840;2022-08-19T10:15:14;14.60;;;12.93;;
20209;SDS011;10264;53.178;5.840;2022-08-19T10:17:41;14.75;;;13.25;;
20209;SDS011;10264;53.178;5.840;2022-08-19T10:20:20;16.88;;;14.43;;
20209;SDS011;10264;53.178;5.840;2022-08-19T10:22:46;16.08;;;14.40;;
20209;SDS011;10264;53.178;5.840;2022-08-19T10:25:18;16.70;;;13.60;;
20209;SDS011;10264;53.178;5.840;2022-08-19T10:27:47;14.83;;;13.30;;
20209;SDS011;10264;53.178;5.840;2022-08-19T10:30:16;14.75;;;13.15;;
20209;SDS011;10264;53.178;5.840;2022-08-19T10:32:45;15.48;;;13.10;;
20209;SDS011;10264;53.178;5.840;2022-08-19T10:35:13;17.17;;;13.30;;
20209;SDS011;10264;53.178;5.840;2022-08-19T10:37:47;15.93;;;14.23;;
20209;SDS011;10264;53.178;5.840;2022-08-19T10:40:22;16.75;;;13.02;;
20209;SDS011;10264;53.178;5.840;2022-08-19T10:42:49;14.45;;;12.80;;
20209;SDS011;10264;53.178;5.840;2022-08-19T10:45:16;12.27;;;10.90;;
20209;SDS011;10264;53.178;5.840;2022-08-19T10:47:42;14.50;;;12.55;;
20209;SDS011;10264;53.178;5.840;2022-08-19T10:50:09;13.68;;;12.13;;
20209;SDS011;10264;53.178;5.840;2022-08-19T10:52:37;13.07;;;11.60;;
20209;SDS011;10264;53.178;5.840;2022-08-19T10:55:15;17.77;;;12.30;;
20209;SDS011;10264;53.178;5.840;2022-08-19T10:57:43;13.82;;;11.68;;
20209;SDS011;10264;53.178;5.840;2022-08-19T11:00:27;15.52;;;11.88;;
20209;SDS011;10264;53.178;5.840;2022-08-19T11:02:54;12.90;;;11.60;;
20209;SDS011;10264;53.178;5.840;2022-08-19T11:05:21;14.07;;;12.70;;
20209;SDS011;10264;53.178;5.840;2022-08-19T11:07:49;16.20;;;12.50;;
20209;SDS011;10264;53.178;5.840;2022-08-19T11:10:16;15.73;;;11.30;;
20209;SDS011;10264;53.178;5.840;2022-08-19T11:12:47;16.63;;;12.93;;
20209;SDS011;10264;53.178;5.840;2022-08-19T11:15:13;13.27;;;11.87;;
20209;SDS011;10264;53.178;5.840;2022-08-19T11:17:40;16.40;;;13.50;;
20209;SDS011;10264;53.178;5.840;2022-08-19T11:20:08;16.17;;;12.90;;
20209;SDS011;10264;53.178;5.840;2022-08-19T11:22:35;15.50;;;12.77;;
20209;SDS011;10264;53.178;5.840;2022-08-19T11:25:07;13.10;;;11.37;;
20209;SDS011;10264;53.178;5.840;2022-08-19T11:27:41;16.67;;;11.37;;
20209;SDS011;10264;53.178;5.840;2022-08-19T11:30:08;14.33;;;11.57;;
20209;SDS011;10264;53.178;5.840;2022-08-19T11:32:38;14.03;;;11.70;;
20209;SDS011;10264;53.178;5.840;2022-08-19T11:35:14;15.47;;;11.90;;
20209;SDS011;10264;53.178;5.840;2022-08-19T11:37:41;12.50;;;8.93;;
20209;SDS011;10264;53.178;5.840;2022-08-19T11:40:08;13.40;;;9.73;;
20209;SDS011;10264;53.178;5.840;2022-08-19T11:42:35;12.47;;;8.90;;
20209;SDS011;10264;53.178;5.840;2022-08-19T11:45:02;10.70;;;8.70;;
20209;SDS011;10264;53.178;5.840;2022-08-19T11:47:29;11.83;;;8.73;;
20209;SDS011;10264;53.178;5.840;2022-08-19T11:49:56;10.27;;;9.07;;
20209;SDS011;10264;53.178;5.840;2022-08-19T11:52:22;11.27;;;9.10;;
20209;SDS011;10264;53.178;5.840;2022-08-19T11:54:49;10.90;;;9.67;;
20209;SDS011;10264;53.178;5.840;2022-08-19T11:57:15;11.00;;;9.90;;
20209;SDS011;10264;53.178;5.840;2022-08-19T11:59:46;11.70;;;9.47;;
20209;SDS011;10264;53.178;5.840;2022-08-19T12:02:14;11.57;;;10.10;;
20209;SDS011;10264;53.178;5.840;2022-08-19T12:04:40;15.30;;;11.07;;
20209;SDS011;10264;53.178;5.840;2022-08-19T12:07:07;12.03;;;9.77;;
20209;SDS011;10264;53.178;5.840;2022-08-19T12:09:33;12.77;;;10.83;;
20209;SDS011;10264;53.178;5.840;2022-08-19T12:12:00;13.97;;;11.03;;
20209;SDS011;10264;53.178;5.840;2022-08-19T12:14:27;14.63;;;11.77;;
20209;SDS011;10264;53.178;5.840;2022-08-19T12:16:53;14.03;;;10.70;;
20209;SDS011;10264;53.178;5.840;2022-08-19T12:19:20;12.57;;;11.23;;
20209;SDS011;10264;53.178;5.840;2022-08-19T12:21:47;15.90;;;10.70;;
20209;SDS011;10264;53.178;5.840;2022-08-19T12:24:14;12.27;;;10.97;;
20209;SDS011;10264;53.178;5.840;2022-08-19T12:26:41;12.27;;;10.97;;
20209;SDS011;10264;53.178;5.840;2022-08-19T12:29:19;13.83;;;9.53;;
20209;SDS011;10264;53.178;5.840;2022-08-19T12:31:49;11.90;;;9.70;;
20209;SDS011;10264;53.178;5.840;2022-08-19T12:34:15;10.40;;;9.27;;
20209;SDS011;10264;53.178;5.840;2022-08-19T12:36:42;11.20;;;9.27;;
20209;SDS011;10264;53.178;5.840;2022-08-19T12:39:08;13.50;;;9.53;;
20209;SDS011;10264;53.178;5.840;2022-08-19T12:41:38;13.27;;;9.07;;
20209;SDS011;10264;53.178;5.840;2022-08-19T12:44:19;10.57;;;8.70;;
20209;SDS011;10264;53.178;5.840;2022-08-19T12:46:54;10.27;;;8.60;;
20209;SDS011;10264;53.178;5.840;2022-08-19T12:49:20;10.30;;;9.03;;
20209;SDS011;10264;53.178;5.840;2022-08-19T12:52:07;12.57;;;9.43;;
20209;SDS011;10264;53.178;5.840;2022-08-19T12:54:35;12.70;;;9.00;;
20209;SDS011;10264;53.178;5.840;2022-08-19T12:57:07;11.87;;;9.93;;
20209;SDS011;10264;53.178;5.840;2022-08-19T12:59:34;11.93;;;10.27;;
20209;SDS011;10264;53.178;5.840;2022-08-19T13:02:06;13.93;;;10.27;;
20209;SDS011;10264;53.178;5.840;2022-08-19T13:04:33;13.57;;;10.60;;
20209;SDS011;10264;53.178;5.840;2022-08-19T13:07:01;15.13;;;11.70;;
20209;SDS011;10264;53.178;5.840;2022-08-19T13:09:27;11.40;;;10.20;;
20209;SDS011;10264;53.178;5.840;2022-08-19T13:11:54;13.20;;;9.70;;
20209;SDS011;10264;53.178;5.840;2022-08-19T13:14:20;11.83;;;10.63;;
20209;SDS011;10264;53.178;5.840;2022-08-19T13:16:47;13.67;;;10.87;;
20209;SDS011;10264;53.178;5.840;2022-08-19T13:19:13;11.57;;;10.37;;
20209;SDS011;10264;53.178;5.840;2022-08-19T13:21:40;10.73;;;9.27;;
20209;SDS011;10264;53.178;5.840;2022-08-19T13:24:07;11.40;;;9.47;;
20209;SDS011;10264;53.178;5.840;2022-08-19T13:26:34;14.33;;;10.30;;
20209;SDS011;10264;53.178;5.840;2022-08-19T13:29:00;13.53;;;9.90;;
20209;SDS011;10264;53.178;5.840;2022-08-19T13:31:30;10.77;;;8.80;;
20209;SDS011;10264;53.178;5.840;2022-08-19T13:33:57;14.73;;;12.07;;
20209;SDS011;10264;53.178;5.840;2022-08-19T13:36:24;12.87;;;8.93;;
20209;SDS011;10264;53.178;5.840;2022-08-19T13:38:51;11.40;;;8.87;;
20209;SDS011;10264;53.178;5.840;2022-08-19T13:41:17;10.10;;;9.10;;
20209;SDS011;10264;53.178;5.840;2022-08-19T13:43:44;12.50;;;9.23;;
20209;SDS011;10264;53.178;5.840;2022-08-19T13:46:11;12.57;;;11.30;;
20209;SDS011;10264;53.178;5.840;2022-08-19T13:48:38;12.30;;;9.10;;
20209;SDS011;10264;53.178;5.840;2022-08-19T13:51:05;11.40;;;8.60;;
20209;SDS011;10264;53.178;5.840;2022-08-19T13:53:31;12.67;;;9.37;;
20209;SDS011;10264;53.178;5.840;2022-08-19T13:55:58;9.13;;;6.83;;
20209;SDS011;10264;53.178;5.840;2022-08-19T13:58:24;10.50;;;8.83;;
20209;SDS011;10264;53.178;5.840;2022-08-19T14:00:51;10.97;;;8.90;;
20209;SDS011;10264;53.178;5.840;2022-08-19T14:03:17;9.27;;;7.97;;
20209;SDS011;10264;53.178;5.840;2022-08-19T14:05:44;9.73;;;8.63;;
20209;SDS011;10264;53.178;5.840;2022-08-19T14:08:10;12.43;;;8.40;;
20209;SDS011;10264;53.178;5.840;2022-08-19T14:10:37;10.67;;;9.20;;
20209;SDS011;10264;53.178;5.840;2022-08-19T14:13:03;13.10;;;8.77;;
20209;SDS011;10264;53.178;5.840;2022-08-19T14:15:30;8.33;;;7.40;;
20209;SDS011;10264;53.178;5.840;2022-08-19T14:17:57;9.30;;;8.20;;
20209;SDS011;10264;53.178;5.840;2022-08-19T14:20:24;9.90;;;8.30;;
20209;SDS011;10264;53.178;5.840;2022-08-19T14:22:52;9.17;;;7.83;;
20209;SDS011;10264;53.178;5.840;2022-08-19T14:25:23;8.70;;;7.37;;
20209;SDS011;10264;53.178;5.840;2022-08-19T14:27:52;10.13;;;7.10;;
20209;SDS011;10264;53.178;5.840;2022-08-19T14:30:21;6.40;;;4.83;;
20209;SDS011;10264;53.178;5.840;2022-08-19T14:32:49;6.23;;;5.37;;
20209;SDS011;10264;53.178;5.840;2022-08-19T14:35:15;6.33;;;4.47;;
20209;SDS011;10264;53.178;5.840;2022-08-19T14:37:42;5.47;;;4.40;;
20209;SDS011;10264;53.178;5.840;2022-08-19T14:40:11;4.87;;;3.50;;
20209;SDS011;10264;53.178;5.840;2022-08-19T14:42:40;4.80;;;3.57;;
20209;SDS011;10264;53.178;5.840;2022-08-19T14:45:07;3.40;;;3.03;;
20209;SDS011;10264;53.178;5.840;2022-08-19T14:47:35;3.97;;;3.20;;